createdAt,value
2023-03-05T00:02:29.982Z,1.25
2023-03-05T00:05:34.343Z,1.26
2023-03-05T00:08:37.151Z,1.20
2023-03-05T00:11:39.811Z,1.18
2023-03-05T00:14:42.166Z,1.16
2023-03-05T00:17:44.824Z,1.20
2023-03-05T00:20:47.258Z,1.13
2023-03-05T00:23:53.518Z,1.12
2023-03-05T00:26:56.277Z,1.13
2023-03-05T00:29:58.924Z,1.02
2023-03-05T00:33:01.425Z,1.04
2023-03-05T00:36:06.239Z,1.07
2023-03-05T00:39:09.205Z,1.04
2023-03-05T00:42:12.034Z,1.11
2023-03-05T00:45:14.352Z,1.11
2023-03-05T00:48:16.958Z,1.16
2023-03-05T00:51:19.853Z,1.14
2023-03-05T00:54:22.862Z,1.15
2023-03-05T00:57:25.124Z,1.14
2023-03-05T01:00:27.867Z,1.17
2023-03-05T01:03:32.045Z,1.19
2023-03-05T01:06:34.902Z,1.16
2023-03-05T01:09:37.424Z,1.23
2023-03-05T01:12:40.341Z,1.22
2023-03-05T01:15:42.725Z,1.23
2023-03-05T01:18:45.290Z,1.31
2023-03-05T01:21:47.683Z,1.35
2023-03-05T01:24:50.555Z,1.37
2023-03-05T01:27:52.898Z,1.30
2023-03-05T01:30:55.580Z,1.34
2023-03-05T01:34:00.143Z,1.33
2023-03-05T01:37:03.107Z,1.31
2023-03-05T01:40:06.577Z,1.31
2023-03-05T01:43:12.283Z,1.34
2023-03-05T01:46:23.776Z,1.34
2023-03-05T01:49:27.977Z,1.30
2023-03-05T01:52:33.293Z,1.32
2023-03-05T01:55:37.393Z,1.34
2023-03-05T01:58:39.941Z,1.38
2023-03-05T02:01:48.177Z,1.44
2023-03-05T02:04:54.373Z,1.44
2023-03-05T02:07:58.304Z,1.45
2023-03-05T02:11:02.181Z,1.44
2023-03-05T02:14:05.364Z,1.44
2023-03-05T02:17:08.431Z,1.42
2023-03-05T02:20:15.857Z,1.41
2023-03-05T02:23:19.352Z,1.40
2023-03-05T02:26:21.953Z,1.42
2023-03-05T02:29:24.571Z,1.43
2023-03-05T02:32:27.117Z,1.43
2023-03-05T02:35:29.828Z,1.45
2023-03-05T02:38:32.324Z,1.47
2023-03-05T02:41:35.828Z,1.45
2023-03-05T02:44:38.249Z,1.47
2023-03-05T02:47:41.294Z,1.51
2023-03-05T02:50:44.684Z,1.50
2023-03-05T02:53:49.972Z,1.51
2023-03-05T02:56:52.500Z,1.47
2023-03-05T02:59:55.204Z,1.51
2023-03-05T03:02:57.770Z,1.51
2023-03-05T03:06:00.434Z,1.49
2023-03-05T03:09:03.087Z,1.47
2023-03-05T03:12:06.213Z,1.53
2023-03-05T03:15:10.150Z,1.51
2023-03-05T03:18:12.726Z,1.53
2023-03-05T03:21:19.600Z,1.54
2023-03-05T03:24:22.252Z,1.56
2023-03-05T03:27:24.609Z,1.55
2023-03-05T03:30:27.399Z,1.54
2023-03-05T03:33:29.702Z,1.50
2023-03-05T03:36:32.371Z,1.51
2023-03-05T03:39:34.775Z,1.50
2023-03-05T03:42:37.709Z,1.53
2023-03-05T03:45:40.569Z,1.58
2023-03-05T03:48:43.125Z,1.61
2023-03-05T03:51:45.907Z,1.56
2023-03-05T03:54:49.672Z,1.56
2023-03-05T03:57:51.938Z,1.60
2023-03-05T04:00:54.574Z,1.67
2023-03-05T04:03:57.404Z,1.68
2023-03-05T04:06:59.774Z,1.65
2023-03-05T04:10:02.512Z,1.67
2023-03-05T04:13:04.883Z,1.70
2023-03-05T04:16:07.877Z,1.75
2023-03-05T04:19:10.280Z,1.75
2023-03-05T04:22:14.444Z,1.77
2023-03-05T04:25:17.022Z,1.79
2023-03-05T04:28:19.687Z,1.80
2023-03-05T04:31:22.155Z,1.84
2023-03-05T04:34:25.183Z,1.86
2023-03-05T04:37:27.920Z,1.86
2023-03-05T04:40:30.703Z,1.85
2023-03-05T04:43:33.153Z,1.84
2023-03-05T04:46:35.845Z,1.87
2023-03-05T04:49:38.187Z,1.81
2023-03-05T04:52:41.992Z,1.77
2023-03-05T04:55:44.358Z,1.80
2023-03-05T04:58:47.544Z,1.78
2023-03-05T05:01:49.911Z,1.79
2023-03-05T05:04:55.667Z,1.83
2023-03-05T05:07:58.604Z,1.86
2023-03-05T05:11:02.482Z,1.87
2023-03-05T05:14:04.834Z,1.85
2023-03-05T05:17:07.510Z,1.86
2023-03-05T05:20:11.581Z,1.88
2023-03-05T05:23:14.460Z,1.96
2023-03-05T05:26:16.740Z,1.97
2023-03-05T05:29:19.570Z,2.04
2023-03-05T05:32:24.103Z,2.06
2023-03-05T05:35:26.835Z,2.09
2023-03-05T05:38:29.150Z,2.10
2023-03-05T05:41:31.892Z,2.16
2023-03-05T05:44:35.010Z,2.20
2023-03-05T05:47:37.625Z,2.21
2023-03-05T05:50:41.175Z,2.21
2023-03-05T05:53:44.325Z,2.26
2023-03-05T05:56:46.593Z,2.27
2023-03-05T05:59:49.252Z,2.26
2023-03-05T06:02:51.884Z,2.34
2023-03-05T06:05:54.613Z,2.44
2023-03-05T06:08:57.063Z,2.46
2023-03-05T06:11:59.745Z,2.54
2023-03-05T06:15:02.030Z,2.57
2023-03-05T06:18:06.196Z,2.64
2023-03-05T06:21:11.480Z,2.66
2023-03-05T06:24:14.482Z,2.71
2023-03-05T06:27:17.001Z,2.78
2023-03-05T06:30:19.680Z,2.92
2023-03-05T06:33:22.446Z,2.98
2023-03-05T06:36:25.753Z,3.00
2023-03-05T06:39:28.174Z,3.11
2023-03-05T06:42:30.918Z,3.22
2023-03-05T06:45:33.301Z,3.32
2023-03-05T06:48:35.903Z,3.34
2023-03-05T06:51:39.429Z,3.40
2023-03-05T06:54:42.129Z,3.48
2023-03-05T06:57:44.936Z,3.57
2023-03-05T07:00:47.797Z,3.58
2023-03-05T07:03:51.468Z,3.61
2023-03-05T07:06:54.249Z,3.57
2023-03-05T07:09:56.593Z,3.69
2023-03-05T07:12:59.556Z,3.75
2023-03-05T07:16:05.418Z,3.80
2023-03-05T07:19:08.120Z,3.84
2023-03-05T07:22:10.866Z,3.86
2023-03-05T07:25:13.938Z,3.82
2023-03-05T07:28:16.316Z,3.89
2023-03-05T07:31:20.412Z,3.94
2023-03-05T07:34:26.092Z,3.99
2023-03-05T07:37:29.762Z,4.11
2023-03-05T07:40:32.234Z,4.11
2023-03-05T07:43:34.970Z,4.06
2023-03-05T07:46:37.522Z,4.07
2023-03-05T07:49:41.741Z,4.10
2023-03-05T07:52:44.134Z,4.07
2023-03-05T07:55:47.029Z,4.06
2023-03-05T07:58:49.429Z,4.09
2023-03-05T08:01:52.172Z,4.09
2023-03-05T08:04:54.984Z,4.16
2023-03-05T08:07:57.312Z,4.39
2023-03-05T08:11:04.371Z,4.32
2023-03-05T08:14:06.801Z,4.37
2023-03-05T08:17:09.474Z,4.57
2023-03-05T08:20:12.160Z,4.66
2023-03-05T08:23:15.007Z,4.65
2023-03-05T08:26:19.108Z,4.75
2023-03-05T08:29:22.097Z,4.84
2023-03-05T08:32:24.804Z,4.90
2023-03-05T08:35:27.417Z,4.92
2023-03-05T08:38:29.894Z,5.00
2023-03-05T08:41:32.523Z,5.28
2023-03-05T08:44:34.960Z,5.60
2023-03-05T08:47:37.513Z,5.87
2023-03-05T08:50:39.868Z,6.11
2023-03-05T08:53:43.385Z,6.10
2023-03-05T08:56:46.127Z,5.89
2023-03-05T08:59:48.857Z,5.80
2023-03-05T09:02:51.653Z,5.79
2023-03-05T09:05:54.301Z,5.92
2023-03-05T09:08:56.748Z,6.04
2023-03-05T09:12:00.088Z,5.94
2023-03-05T09:15:02.607Z,5.96
2023-03-05T09:18:05.471Z,5.94
2023-03-05T09:21:10.236Z,6.17
2023-03-05T09:24:13.425Z,6.34
2023-03-05T09:27:15.723Z,6.45
2023-03-05T09:30:18.559Z,6.54
2023-03-05T09:33:20.884Z,6.88
2023-03-05T09:36:25.337Z,6.97
2023-03-05T09:39:27.637Z,6.96
2023-03-05T09:42:49.160Z,6.78
2023-03-05T09:46:04.606Z,6.93
2023-03-05T09:49:07.506Z,7.29
2023-03-05T09:52:28.234Z,7.73
2023-03-05T09:55:40.557Z,7.86
2023-03-05T09:58:46.728Z,7.72
2023-03-05T10:01:51.338Z,7.45
2023-03-05T10:04:57.766Z,7.50
2023-03-05T10:08:01.591Z,7.67
2023-03-05T10:11:11.542Z,7.67
2023-03-05T10:14:15.849Z,7.72
2023-03-05T10:17:38.006Z,7.14
2023-03-05T10:20:46.670Z,6.82
2023-03-05T10:23:59.919Z,7.01
2023-03-05T10:27:28.393Z,7.03
2023-03-05T10:30:34.163Z,7.05
2023-03-05T10:33:36.467Z,7.05
2023-03-05T10:36:47.438Z,7.17
2023-03-05T10:40:09.927Z,7.24
2023-03-05T10:43:15.618Z,7.50
2023-03-05T10:46:19.950Z,7.36
2023-03-05T10:49:26.640Z,7.43
2023-03-05T10:52:35.127Z,7.52
2023-03-05T10:55:37.745Z,7.73
2023-03-05T10:58:40.137Z,7.97
2023-03-05T11:02:01.179Z,7.80
2023-03-05T11:05:05.208Z,7.67
2023-03-05T11:08:22.741Z,7.32
2023-03-05T11:11:25.288Z,7.28
2023-03-05T11:14:33.448Z,7.52
2023-03-05T11:17:38.310Z,7.10
2023-03-05T11:20:41.151Z,7.00
2023-03-05T11:23:43.527Z,7.12
2023-03-05T11:26:53.113Z,7.09
2023-03-05T11:29:55.376Z,7.14
2023-03-05T11:33:09.372Z,7.36
2023-03-05T11:36:21.268Z,7.41
2023-03-05T11:39:25.286Z,7.36
2023-03-05T11:42:28.626Z,7.34
2023-03-05T11:45:32.749Z,7.05
2023-03-05T11:48:36.496Z,6.89
2023-03-05T11:51:54.671Z,6.61
2023-03-05T11:55:06.035Z,6.82
2023-03-05T11:58:11.595Z,6.76
2023-03-05T12:01:24.750Z,6.71
2023-03-05T12:04:27.676Z,6.61
2023-03-05T12:07:41.706Z,6.62
2023-03-05T12:10:44.467Z,6.66
2023-03-05T12:13:56.527Z,6.71
2023-03-05T12:17:12.732Z,6.94
2023-03-05T12:20:23.918Z,6.80
2023-03-05T12:23:28.113Z,7.06
2023-03-05T12:26:49.055Z,7.36
2023-03-05T12:29:52.493Z,7.82
2023-03-05T12:32:55.782Z,8.03
2023-03-05T12:36:17.199Z,7.98
2023-03-05T12:39:38.355Z,8.29
2023-03-05T12:42:41.018Z,8.71
2023-03-05T12:45:43.677Z,8.35
2023-03-05T12:48:46.478Z,8.05
2023-03-05T12:51:50.256Z,8.10
2023-03-05T12:55:20.312Z,8.55
2023-03-05T12:58:31.770Z,8.57
2023-03-05T13:01:40.641Z,8.67
2023-03-05T13:04:45.233Z,8.86
2023-03-05T13:07:48.555Z,8.40
2023-03-05T13:10:55.138Z,7.85
2023-03-05T13:13:58.349Z,8.08
2023-03-05T13:17:00.894Z,7.89
2023-03-05T13:20:23.713Z,7.60
2023-03-05T13:23:27.176Z,7.30
2023-03-05T13:26:40.546Z,7.11
2023-03-05T13:29:51.370Z,7.07
2023-03-05T13:32:56.830Z,6.76
2023-03-05T13:35:59.779Z,6.55
2023-03-05T13:39:04.097Z,6.35
2023-03-05T13:42:06.437Z,6.32
2023-03-05T13:45:27.740Z,6.44
2023-03-05T13:48:30.193Z,6.36
2023-03-05T13:51:42.995Z,6.46
2023-03-05T13:54:45.311Z,6.49
2023-03-05T13:57:52.950Z,6.48
2023-03-05T14:01:25.143Z,6.39
2023-03-05T14:04:32.420Z,6.28
2023-03-05T14:07:41.670Z,6.16
2023-03-05T14:10:45.984Z,6.04
2023-03-05T14:13:49.029Z,5.92
2023-03-05T14:16:52.183Z,5.93
2023-03-05T14:20:06.971Z,5.89
2023-03-05T14:23:45.261Z,5.86
2023-03-05T14:26:49.677Z,5.66
2023-03-05T14:29:52.560Z,5.57
2023-03-05T14:32:55.893Z,5.61
2023-03-05T14:35:59.801Z,5.57
2023-03-05T14:39:02.251Z,5.52
2023-03-05T14:42:24.688Z,5.53
2023-03-05T14:45:27.176Z,5.56
2023-03-05T14:48:29.753Z,5.58
2023-03-05T14:51:34.490Z,5.55
2023-03-05T14:54:38.304Z,5.49
2023-03-05T14:57:40.769Z,5.52
2023-03-05T15:00:43.867Z,5.59
2023-03-05T15:03:46.323Z,5.69
2023-03-05T15:06:51.208Z,5.86
2023-03-05T15:09:53.669Z,5.97
2023-03-05T15:12:56.374Z,6.07
2023-03-05T15:15:59.133Z,6.00
2023-03-05T15:19:03.720Z,5.99
2023-03-05T15:22:06.603Z,5.76
2023-03-05T15:25:09.466Z,5.68
2023-03-05T15:28:11.814Z,5.51
2023-03-05T15:31:16.164Z,5.30
2023-03-05T15:34:18.599Z,5.19
2023-03-05T15:37:21.238Z,5.23
2023-03-05T15:40:24.412Z,5.27
2023-03-05T15:43:27.218Z,5.18
2023-03-05T15:46:29.616Z,5.06
2023-03-05T15:49:32.908Z,4.95
2023-03-05T15:52:35.700Z,4.91
2023-03-05T15:55:39.129Z,4.87
2023-03-05T15:58:43.368Z,4.83
2023-03-05T16:01:49.030Z,4.75
2023-03-05T16:04:51.948Z,4.61
2023-03-05T16:07:54.850Z,4.50
2023-03-05T16:10:57.754Z,4.46
2023-03-05T16:14:02.733Z,4.34
2023-03-05T16:17:05.661Z,4.27
2023-03-05T16:20:08.989Z,4.17
2023-03-05T16:23:11.724Z,4.10
2023-03-05T16:26:14.000Z,4.07
2023-03-05T16:29:17.047Z,4.00
2023-03-05T16:32:19.610Z,3.95
2023-03-05T16:35:22.438Z,3.90
2023-03-05T16:38:24.785Z,3.87
2023-03-05T16:41:27.608Z,3.79
2023-03-05T16:44:29.948Z,3.72
2023-03-05T16:47:32.654Z,3.70
2023-03-05T16:50:35.017Z,3.63
2023-03-05T16:53:38.171Z,3.66
2023-03-05T16:56:40.578Z,3.64
2023-03-05T16:59:43.878Z,3.65
2023-03-05T17:02:46.933Z,3.59
2023-03-05T17:05:49.555Z,3.54
2023-03-05T17:08:52.224Z,3.57
2023-03-05T17:11:55.091Z,3.53
2023-03-05T17:14:57.529Z,3.51
2023-03-05T17:18:00.336Z,3.44
2023-03-05T17:21:03.864Z,3.46
2023-03-05T17:24:06.768Z,3.36
2023-03-05T17:27:09.690Z,3.35
2023-03-05T17:30:12.976Z,3.27
2023-03-05T17:33:15.427Z,3.18
2023-03-05T17:36:19.919Z,3.14
2023-03-05T17:39:22.319Z,3.11
2023-03-05T17:42:24.865Z,3.10
2023-03-05T17:45:27.430Z,3.04
2023-03-05T17:48:30.628Z,3.07
2023-03-05T17:51:32.924Z,2.95
2023-03-05T17:54:35.640Z,2.93
2023-03-05T17:57:42.514Z,2.84
2023-03-05T18:00:45.260Z,2.94
2023-03-05T18:03:47.933Z,3.01
2023-03-05T18:06:50.271Z,3.05
2023-03-05T18:09:52.921Z,3.07
2023-03-05T18:12:55.507Z,3.05
2023-03-05T18:15:59.466Z,3.04
2023-03-05T18:19:01.846Z,3.11
2023-03-05T18:22:04.865Z,3.09
2023-03-05T18:25:07.526Z,3.09
2023-03-05T18:28:11.589Z,3.16
2023-03-05T18:31:13.978Z,3.12
2023-03-05T18:34:17.952Z,3.15
2023-03-05T18:37:20.253Z,3.09
2023-03-05T18:40:24.490Z,3.12
2023-03-05T18:43:27.614Z,3.12
2023-03-05T18:46:30.377Z,3.11
2023-03-05T18:49:32.854Z,3.05
2023-03-05T18:52:37.446Z,3.02
2023-03-05T18:55:42.786Z,3.02
2023-03-05T18:58:47.680Z,3.07
2023-03-05T19:01:49.993Z,3.09
2023-03-05T19:04:52.749Z,2.96
2023-03-05T19:07:55.876Z,2.85
2023-03-05T19:10:58.496Z,2.87
2023-03-05T19:14:00.806Z,2.87
2023-03-05T19:17:03.400Z,2.74
2023-03-05T19:20:07.756Z,2.56
2023-03-05T19:23:10.501Z,2.57
2023-03-05T19:26:13.470Z,2.51
2023-03-05T19:29:16.563Z,2.61
2023-03-05T19:32:21.103Z,2.57
2023-03-05T19:35:24.123Z,2.62
2023-03-05T19:38:26.526Z,2.59
2023-03-05T19:41:29.498Z,2.51
2023-03-05T19:44:32.288Z,2.41
2023-03-05T19:47:34.983Z,2.33
2023-03-05T19:50:37.362Z,2.32
2023-03-05T19:53:40.693Z,2.25
2023-03-05T19:56:44.128Z,2.20
2023-03-05T19:59:46.822Z,2.14
2023-03-05T20:02:49.186Z,2.18
2023-03-05T20:05:51.854Z,2.21
2023-03-05T20:08:54.976Z,2.21
2023-03-05T20:11:58.363Z,2.19
2023-03-05T20:15:00.634Z,2.31
2023-03-05T20:18:03.354Z,2.36
2023-03-05T20:21:05.879Z,2.37
2023-03-05T20:24:10.590Z,2.30
2023-03-05T20:27:13.144Z,2.25
2023-03-05T20:30:17.562Z,2.25
2023-03-05T20:33:19.922Z,2.33
2023-03-05T20:36:29.538Z,2.39
2023-03-05T20:39:32.044Z,2.44
2023-03-05T20:42:34.726Z,2.46
2023-03-05T20:45:37.476Z,2.66
2023-03-05T20:48:40.060Z,2.61
2023-03-05T20:51:42.496Z,2.54
2023-03-05T20:54:47.746Z,2.53
2023-03-05T20:57:50.143Z,2.68
2023-03-05T21:00:53.230Z,2.64
2023-03-05T21:03:58.632Z,2.68
2023-03-05T21:07:01.181Z,2.69
2023-03-05T21:10:03.799Z,2.72
2023-03-05T21:13:06.473Z,2.70
2023-03-05T21:16:09.940Z,2.73
2023-03-05T21:19:12.614Z,2.80
2023-03-05T21:22:14.922Z,2.69
2023-03-05T21:25:21.179Z,2.68
2023-03-05T21:28:23.956Z,2.67
2023-03-05T21:31:26.786Z,2.61
2023-03-05T21:34:30.172Z,2.68
2023-03-05T21:37:32.836Z,2.64
2023-03-05T21:40:36.402Z,2.60
2023-03-05T21:43:39.182Z,2.53
2023-03-05T21:46:42.742Z,2.45
2023-03-05T21:49:45.579Z,2.43
2023-03-05T21:52:48.004Z,2.39
2023-03-05T21:56:16.758Z,2.45
2023-03-05T21:59:24.879Z,2.55
2023-03-05T22:02:27.600Z,2.55
2023-03-05T22:05:30.224Z,2.48
2023-03-05T22:08:32.856Z,2.41
2023-03-05T22:11:35.430Z,2.39
2023-03-05T22:14:37.871Z,2.50
2023-03-05T22:17:41.429Z,2.46
2023-03-05T22:20:43.982Z,2.55
2023-03-05T22:23:46.536Z,2.51
2023-03-05T22:26:48.883Z,2.51
2023-03-05T22:29:51.558Z,2.45
2023-03-05T22:32:53.977Z,2.45
2023-03-05T22:35:57.039Z,2.49
2023-03-05T22:38:59.512Z,2.65
2023-03-05T22:42:02.070Z,2.68
2023-03-05T22:45:04.536Z,2.68
2023-03-05T22:48:09.838Z,2.81
2023-03-05T22:51:12.722Z,2.78
2023-03-05T22:54:15.415Z,2.72
2023-03-05T22:57:17.707Z,2.81
2023-03-05T23:00:23.475Z,2.82
2023-03-05T23:03:25.929Z,2.76
2023-03-05T23:06:28.890Z,2.79
2023-03-05T23:09:31.234Z,2.71
2023-03-05T23:12:36.560Z,2.71
2023-03-05T23:15:39.074Z,2.95
2023-03-05T23:18:41.832Z,2.98
2023-03-05T23:21:44.180Z,3.06
2023-03-05T23:24:46.949Z,2.93
2023-03-05T23:27:49.517Z,2.99
2023-03-05T23:30:52.185Z,3.01
2023-03-05T23:33:54.757Z,2.92
2023-03-05T23:37:00.373Z,2.91
2023-03-05T23:40:03.404Z,2.88
2023-03-05T23:43:06.128Z,2.84
2023-03-05T23:46:11.924Z,2.87
2023-03-05T23:49:14.784Z,2.92
2023-03-05T23:52:17.302Z,2.88
2023-03-05T23:55:24.411Z,2.89
2023-03-05T23:58:27.248Z,2.98
